sensor_id;sensor_type;location;lat;lon;timestamp;pressure;altitude;pressure_sealevel;temperature;humidity
41898;BME280;27576;53.366;-1.498;2023-07-28T00:01:28;99024.56;;;16.08;100.00
41898;BME280;27576;53.366;-1.498;2023-07-28T00:03:53;99022.91;;;16.05;100.00
41898;BME280;27576;53.366;-1.498;2023-07-28T00:06:19;99021.22;;;16.03;100.00
41898;BME280;27576;53.366;-1.498;2023-07-28T00:08:44;98969.84;;;15.75;100.00
41898;BME280;27576;53.366;-1.498;2023-07-28T00:11:11;99023.00;;;16.02;100.00
41898;BME280;27576;53.366;-1.498;2023-07-28T00:13:38;99021.22;;;16.03;100.00
41898;BME280;27576;53.366;-1.498;2023-07-28T00:16:04;99016.78;;;16.06;100.00
41898;BME280;27576;53.366;-1.498;2023-07-28T00:18:29;99020.22;;;16.07;100.00
41898;BME280;27576;53.366;-1.498;2023-07-28T00:20:55;98995.41;;;15.93;100.00
41898;BME280;27576;53.366;-1.498;2023-07-28T00:23:20;99006.41;;;16.03;100.00
41898;BME280;27576;53.366;-1.498;2023-07-28T00:25:45;99013.28;;;16.07;100.00
41898;BME280;27576;53.366;-1.498;2023-07-28T00:28:11;99003.00;;;16.01;100.00
41898;BME280;27576;53.366;-1.498;2023-07-28T00:30:36;99018.50;;;16.07;100.00
41898;BME280;27576;53.366;-1.498;2023-07-28T00:33:02;98989.31;;;15.93;100.00
41898;BME280;27576;53.366;-1.498;2023-07-28T00:35:27;99006.41;;;16.03;100.00
41898;BME280;27576;53.366;-1.498;2023-07-28T00:37:52;98994.72;;;15.88;100.00
41898;BME280;27576;53.366;-1.498;2023-07-28T00:40:18;99006.69;;;15.95;100.00
41898;BME280;27576;53.366;-1.498;2023-07-28T00:42:43;98986.19;;;15.82;100.00
41898;BME280;27576;53.366;-1.498;2023-07-28T00:45:09;98999.25;;;15.82;100.00
41898;BME280;27576;53.366;-1.498;2023-07-28T00:47:35;99024.97;;;15.95;100.00
41898;BME280;27576;53.366;-1.498;2023-07-28T00:50:01;99016.41;;;15.90;100.00
41898;BME280;27576;53.366;-1.498;2023-07-28T00:52:27;99022.47;;;15.91;100.00
41898;BME280;27576;53.366;-1.498;2023-07-28T00:54:52;99014.69;;;15.89;100.00
41898;BME280;27576;53.366;-1.498;2023-07-28T00:57:18;98992.34;;;15.79;100.00
41898;BME280;27576;53.366;-1.498;2023-07-28T00:59:45;99012.88;;;15.91;100.00
41898;BME280;27576;53.366;-1.498;2023-07-28T01:02:10;98985.63;;;15.72;100.00
41898;BME280;27576;53.366;-1.498;2023-07-28T01:04:36;99017.41;;;15.86;100.00
41898;BME280;27576;53.366;-1.498;2023-07-28T01:09:48;99006.56;;;15.70;100.00
41898;BME280;27576;53.366;-1.498;2023-07-28T01:12:16;99012.75;;;15.68;100.00
41898;BME280;27576;53.366;-1.498;2023-07-28T01:14:43;99002.44;;;15.62;100.00
41898;BME280;27576;53.366;-1.498;2023-07-28T01:17:08;99017.84;;;15.73;100.00
41898;BME280;27576;53.366;-1.498;2023-07-28T01:19:34;99010.03;;;15.71;100.00
41898;BME280;27576;53.366;-1.498;2023-07-28T01:27:51;98990.78;;;15.44;100.00
41898;BME280;27576;53.366;-1.498;2023-07-28T01:30:17;99027.72;;;15.61;100.00
41898;BME280;27576;53.366;-1.498;2023-07-28T01:32:44;98998.72;;;15.41;100.00
41898;BME280;27576;53.366;-1.498;2023-07-28T01:35:10;99024.41;;;15.55;100.00
41898;BME280;27576;53.366;-1.498;2023-07-28T01:37:35;99014.19;;;15.47;100.00
41898;BME280;27576;53.366;-1.498;2023-07-28T01:40:00;99023.72;;;15.48;100.00
41898;BME280;27576;53.366;-1.498;2023-07-28T01:42:26;99022.03;;;15.47;100.00
41898;BME280;27576;53.366;-1.498;2023-07-28T01:44:51;99022.09;;;15.44;100.00
41898;BME280;27576;53.366;-1.498;2023-07-28T01:47:17;99001.66;;;15.30;100.00
41898;BME280;27576;53.366;-1.498;2023-07-28T01:49:42;99027.38;;;15.42;100.00
41898;BME280;27576;53.366;-1.498;2023-07-28T01:52:07;99027.53;;;15.38;100.00
41898;BME280;27576;53.366;-1.498;2023-07-28T01:54:33;99021.69;;;15.28;100.00
41898;BME280;27576;53.366;-1.498;2023-07-28T01:56:58;98997.72;;;15.15;100.00
41898;BME280;27576;53.366;-1.498;2023-07-28T01:59:23;99030.34;;;15.30;100.00
41898;BME280;27576;53.366;-1.498;2023-07-28T02:01:49;99034.63;;;15.33;100.00
41898;BME280;27576;53.366;-1.498;2023-07-28T02:04:14;99041.59;;;15.32;100.00
41898;BME280;27576;53.366;-1.498;2023-07-28T02:06:41;99027.03;;;15.25;100.00
41898;BME280;27576;53.366;-1.498;2023-07-28T02:09:06;99032.13;;;15.28;100.00
41898;BME280;27576;53.366;-1.498;2023-07-28T02:11:32;99030.50;;;15.26;100.00
41898;BME280;27576;53.366;-1.498;2023-07-28T02:13:57;99027.91;;;15.24;100.00
41898;BME280;27576;53.366;-1.498;2023-07-28T02:16:23;99028.88;;;15.21;100.00
41898;BME280;27576;53.366;-1.498;2023-07-28T02:18:49;99027.13;;;15.20;100.00
41898;BME280;27576;53.366;-1.498;2023-07-28T02:21:14;99015.91;;;15.18;100.00
41898;BME280;27576;53.366;-1.498;2023-07-28T02:23:39;99013.38;;;15.15;100.00
41898;BME280;27576;53.366;-1.498;2023-07-28T02:26:05;99016.88;;;15.14;100.00
41898;BME280;27576;53.366;-1.498;2023-07-28T02:28:30;99013.50;;;15.11;100.00
41898;BME280;27576;53.366;-1.498;2023-07-28T02:30:56;99000.63;;;15.05;100.00
41898;BME280;27576;53.366;-1.498;2023-07-28T02:33:21;99006.59;;;15.08;100.00
41898;BME280;27576;53.366;-1.498;2023-07-28T02:35:46;99001.44;;;15.07;100.00
41898;BME280;27576;53.366;-1.498;2023-07-28T02:38:12;99008.41;;;15.06;100.00
41898;BME280;27576;53.366;-1.498;2023-07-28T02:40:37;99003.28;;;15.03;100.00
41898;BME280;27576;53.366;-1.498;2023-07-28T02:43:02;98959.63;;;14.79;100.00
41898;BME280;27576;53.366;-1.498;2023-07-28T02:45:28;98987.06;;;14.92;100.00
41898;BME280;27576;53.366;-1.498;2023-07-28T02:47:53;99006.81;;;15.01;100.00
41898;BME280;27576;53.366;-1.498;2023-07-28T02:50:18;98987.13;;;14.89;100.00
41898;BME280;27576;53.366;-1.498;2023-07-28T02:52:44;98999.97;;;14.96;100.00
41898;BME280;27576;53.366;-1.498;2023-07-28T02:55:09;98985.44;;;14.88;100.00
41898;BME280;27576;53.366;-1.498;2023-07-28T02:57:34;98999.13;;;14.96;100.00
41898;BME280;27576;53.366;-1.498;2023-07-28T03:00:00;98996.78;;;14.87;100.00
41898;BME280;27576;53.366;-1.498;2023-07-28T03:02:25;98979.66;;;14.77;100.00
41898;BME280;27576;53.366;-1.498;2023-07-28T03:04:51;98978.09;;;14.69;100.00
41898;BME280;27576;53.366;-1.498;2023-07-28T03:07:16;99002.00;;;14.85;100.00
41898;BME280;27576;53.366;-1.498;2023-07-28T03:09:42;98993.53;;;14.77;100.00
41898;BME280;27576;53.366;-1.498;2023-07-28T03:12:07;98996.06;;;14.82;100.00
41898;BME280;27576;53.366;-1.498;2023-07-28T03:14:33;98995.22;;;14.80;100.00
41898;BME280;27576;53.366;-1.498;2023-07-28T03:16:58;98994.44;;;14.78;100.00
41898;BME280;27576;53.366;-1.498;2023-07-28T03:19:23;98989.28;;;14.75;100.00
41898;BME280;27576;53.366;-1.498;2023-07-28T03:21:49;98967.97;;;14.59;100.00
41898;BME280;27576;53.366;-1.498;2023-07-28T03:24:14;98971.31;;;14.64;100.00
41898;BME280;27576;53.366;-1.498;2023-07-28T03:26:40;99005.66;;;14.80;100.00
41898;BME280;27576;53.366;-1.498;2023-07-28T03:29:05;99009.19;;;14.77;100.00
41898;BME280;27576;53.366;-1.498;2023-07-28T03:31:33;99005.72;;;14.77;100.00
41898;BME280;27576;53.366;-1.498;2023-07-28T03:34:01;99006.63;;;14.76;100.00
41898;BME280;27576;53.366;-1.498;2023-07-28T03:36:27;98991.31;;;14.63;100.00
41898;BME280;27576;53.366;-1.498;2023-07-28T03:38:52;99010.16;;;14.73;100.00
41898;BME280;27576;53.366;-1.498;2023-07-28T03:41:18;98986.31;;;14.56;100.00
41898;BME280;27576;53.366;-1.498;2023-07-28T03:43:43;99011.97;;;14.71;100.00
41898;BME280;27576;53.366;-1.498;2023-07-28T03:46:09;99011.16;;;14.69;100.00
41898;BME280;27576;53.366;-1.498;2023-07-28T03:48:34;99012.81;;;14.71;100.00
41898;BME280;27576;53.366;-1.498;2023-07-28T03:50:59;99013.63;;;14.73;100.00
41898;BME280;27576;53.366;-1.498;2023-07-28T03:53:25;99014.53;;;14.72;100.00
41898;BME280;27576;53.366;-1.498;2023-07-28T03:55:50;98982.88;;;14.54;100.00
41898;BME280;27576;53.366;-1.498;2023-07-28T03:58:15;99012.78;;;14.73;100.00
41898;BME280;27576;53.366;-1.498;2023-07-28T04:00:41;98998.41;;;14.58;100.00
41898;BME280;27576;53.366;-1.498;2023-07-28T04:03:06;98965.75;;;14.43;100.00
41898;BME280;27576;53.366;-1.498;2023-07-28T04:05:31;98994.97;;;14.56;100.00
41898;BME280;27576;53.366;-1.498;2023-07-28T04:07:57;99013.81;;;14.67;100.00
41898;BME280;27576;53.366;-1.498;2023-07-28T04:10:22;99007.97;;;14.58;100.00
41898;BME280;27576;53.366;-1.498;2023-07-28T04:12:51;99018.28;;;14.62;100.00
41898;BME280;27576;53.366;-1.498;2023-07-28T04:15:16;99020.84;;;14.64;100.00
41898;BME280;27576;53.366;-1.498;2023-07-28T04:17:41;99017.38;;;14.63;100.00
41898;BME280;27576;53.366;-1.498;2023-07-28T04:20:07;99017.47;;;14.60;100.00
41898;BME280;27576;53.366;-1.498;2023-07-28T04:22:33;99029.59;;;14.61;100.00
41898;BME280;27576;53.366;-1.498;2023-07-28T04:24:59;99032.19;;;14.61;100.00
41898;BME280;27576;53.366;-1.498;2023-07-28T04:27:24;99029.59;;;14.61;100.00
41898;BME280;27576;53.366;-1.498;2023-07-28T04:29:49;99028.78;;;14.59;100.00
41898;BME280;27576;53.366;-1.498;2023-07-28T04:32:15;99021.94;;;14.55;100.00
41898;BME280;27576;53.366;-1.498;2023-07-28T04:34:40;99006.53;;;14.44;100.00
41898;BME280;27576;53.366;-1.498;2023-07-28T04:37:06;99022.69;;;14.60;100.00
41898;BME280;27576;53.366;-1.498;2023-07-28T04:39:31;99028.59;;;14.67;100.00
41898;BME280;27576;53.366;-1.498;2023-07-28T04:41:56;98979.75;;;14.38;100.00
41898;BME280;27576;53.366;-1.498;2023-07-28T04:44:21;99023.31;;;14.70;100.00
41898;BME280;27576;53.366;-1.498;2023-07-28T04:46:47;99025.03;;;14.69;100.00
41898;BME280;27576;53.366;-1.498;2023-07-28T04:49:16;99019.66;;;14.76;100.00
41898;BME280;27576;53.366;-1.498;2023-07-28T04:51:41;99023.91;;;14.80;100.00
41898;BME280;27576;53.366;-1.498;2023-07-28T04:54:08;99017.72;;;14.84;100.00
41898;BME280;27576;53.366;-1.498;2023-07-28T04:56:33;99006.56;;;14.79;100.00
41898;BME280;27576;53.366;-1.498;2023-07-28T04:58:58;99007.50;;;14.76;100.00
41898;BME280;27576;53.366;-1.498;2023-07-28T05:01:24;99025.28;;;14.93;100.00
41898;BME280;27576;53.366;-1.498;2023-07-28T05:03:50;99003.91;;;14.80;100.00
41898;BME280;27576;53.366;-1.498;2023-07-28T05:06:15;99032.19;;;14.95;100.00
41898;BME280;27576;53.366;-1.498;2023-07-28T05:08:40;99028.53;;;15.01;100.00
41898;BME280;27576;53.366;-1.498;2023-07-28T05:11:06;99030.19;;;15.05;100.00
41898;BME280;27576;53.366;-1.498;2023-07-28T05:13:31;99013.00;;;14.98;100.00
41898;BME280;27576;53.366;-1.498;2023-07-28T05:15:56;99014.56;;;15.04;100.00
41898;BME280;27576;53.366;-1.498;2023-07-28T05:18:22;99000.88;;;14.95;100.00
41898;BME280;27576;53.366;-1.498;2023-07-28T05:20:47;99024.00;;;15.09;100.00
41898;BME280;27576;53.366;-1.498;2023-07-28T05:23:12;99023.78;;;15.17;100.00
41898;BME280;27576;53.366;-1.498;2023-07-28T05:25:38;99025.50;;;15.16;100.00
41898;BME280;27576;53.366;-1.498;2023-07-28T05:28:03;99025.50;;;15.16;100.00
41898;BME280;27576;53.366;-1.498;2023-07-28T05:30:29;98996.56;;;14.94;100.00
41898;BME280;27576;53.366;-1.498;2023-07-28T05:32:54;99022.56;;;14.97;100.00
41898;BME280;27576;53.366;-1.498;2023-07-28T05:35:19;99042.34;;;15.06;100.00
41898;BME280;27576;53.366;-1.498;2023-07-28T05:37:46;99007.34;;;14.82;100.00
41898;BME280;27576;53.366;-1.498;2023-07-28T05:40:12;99046.63;;;15.07;100.00
41898;BME280;27576;53.366;-1.498;2023-07-28T05:42:37;99050.94;;;15.10;100.00
41898;BME280;27576;53.366;-1.498;2023-07-28T05:45:03;99051.72;;;15.12;100.00
41898;BME280;27576;53.366;-1.498;2023-07-28T05:47:28;99050.81;;;15.14;100.00
41898;BME280;27576;53.366;-1.498;2023-07-28T05:49:54;99047.28;;;15.15;100.00
41898;BME280;27576;53.366;-1.498;2023-07-28T05:52:19;99039.38;;;15.18;100.00
41898;BME280;27576;53.366;-1.498;2023-07-28T05:54:45;99034.09;;;15.21;100.00
41898;BME280;27576;53.366;-1.498;2023-07-28T05:57:10;99018.56;;;15.17;100.00
41898;BME280;27576;53.366;-1.498;2023-07-28T05:59:39;99034.53;;;15.36;100.00
41898;BME280;27576;53.366;-1.498;2023-07-28T06:02:04;99015.50;;;15.32;100.00
41898;BME280;27576;53.366;-1.498;2023-07-28T06:04:29;99040.16;;;15.52;100.00
41898;BME280;27576;53.366;-1.498;2023-07-28T06:06:55;99015.19;;;15.43;100.00
41898;BME280;27576;53.366;-1.498;2023-07-28T06:09:20;99003.84;;;15.44;100.00
41898;BME280;27576;53.366;-1.498;2023-07-28T06:11:45;99028.56;;;15.62;100.00
41898;BME280;27576;53.366;-1.498;2023-07-28T06:14:11;99045.66;;;15.74;100.00
41898;BME280;27576;53.366;-1.498;2023-07-28T06:16:36;99039.66;;;15.70;100.00
41898;BME280;27576;53.366;-1.498;2023-07-28T06:19:02;99030.22;;;15.64;100.00
41898;BME280;27576;53.366;-1.498;2023-07-28T06:21:29;99028.38;;;15.69;100.00
41898;BME280;27576;53.366;-1.498;2023-07-28T06:23:54;99044.59;;;15.79;100.00
41898;BME280;27576;53.366;-1.498;2023-07-28T06:26:20;99034.16;;;15.79;100.00
41898;BME280;27576;53.366;-1.498;2023-07-28T06:28:45;99012.69;;;15.69;100.00
41898;BME280;27576;53.366;-1.498;2023-07-28T06:31:11;99033.13;;;15.85;100.00
41898;BME280;27576;53.366;-1.498;2023-07-28T06:33:36;99020.25;;;15.79;100.00
41898;BME280;27576;53.366;-1.498;2023-07-28T06:36:02;99015.00;;;15.79;100.00
41898;BME280;27576;53.366;-1.498;2023-07-28T06:38:27;99009.78;;;15.79;100.00
41898;BME280;27576;53.366;-1.498;2023-07-28T06:40:53;99004.63;;;15.77;100.00
41898;BME280;27576;53.366;-1.498;2023-07-28T06:43:18;99039.66;;;15.98;100.00
41898;BME280;27576;53.366;-1.498;2023-07-28T06:45:45;99034.34;;;16.01;100.00
41898;BME280;27576;53.366;-1.498;2023-07-28T06:48:10;99003.38;;;15.89;100.00
41898;BME280;27576;53.366;-1.498;2023-07-28T06:50:35;99033.19;;;16.11;100.00
41898;BME280;27576;53.366;-1.498;2023-07-28T06:53:01;99020.09;;;16.11;100.00
41898;BME280;27576;53.366;-1.498;2023-07-28T06:55:26;99035.00;;;16.36;100.00
41898;BME280;27576;53.366;-1.498;2023-07-28T06:57:51;98990.72;;;16.31;100.00
41898;BME280;27576;53.366;-1.498;2023-07-28T07:00:17;99022.75;;;16.63;100.00
41898;BME280;27576;53.366;-1.498;2023-07-28T07:02:45;99013.06;;;16.66;100.00
41898;BME280;27576;53.366;-1.498;2023-07-28T07:05:10;99019.88;;;16.71;100.00
41898;BME280;27576;53.366;-1.498;2023-07-28T07:07:37;99034.44;;;16.79;100.00
41898;BME280;27576;53.366;-1.498;2023-07-28T07:10:02;99037.00;;;16.81;100.00
41898;BME280;27576;53.366;-1.498;2023-07-28T07:12:28;99035.09;;;16.86;100.00
41898;BME280;27576;53.366;-1.498;2023-07-28T07:14:53;99043.63;;;16.91;100.00
41898;BME280;27576;53.366;-1.498;2023-07-28T07:17:18;99044.38;;;16.95;100.00
41898;BME280;27576;53.366;-1.498;2023-07-28T07:19:44;99009.31;;;16.74;100.00
41898;BME280;27576;53.366;-1.498;2023-07-28T07:22:09;99046.13;;;16.94;100.00
41898;BME280;27576;53.366;-1.498;2023-07-28T07:24:35;99040.09;;;16.92;100.00
41898;BME280;27576;53.366;-1.498;2023-07-28T07:27:00;99049.44;;;16.99;100.00
41898;BME280;27576;53.366;-1.498;2023-07-28T07:29:25;98957.25;;;16.41;100.00
41898;BME280;27576;53.366;-1.498;2023-07-28T07:31:51;99026.75;;;16.75;100.00
41898;BME280;27576;53.366;-1.498;2023-07-28T07:34:20;99050.72;;;16.87;100.00
41898;BME280;27576;53.366;-1.498;2023-07-28T07:36:46;99044.56;;;16.88;100.00
41898;BME280;27576;53.366;-1.498;2023-07-28T07:39:11;99047.28;;;16.85;100.00
41898;BME280;27576;53.366;-1.498;2023-07-28T07:41:36;99050.47;;;16.95;100.00
41898;BME280;27576;53.366;-1.498;2023-07-28T07:44:02;99033.78;;;16.98;100.00
41898;BME280;27576;53.366;-1.498;2023-07-28T07:46:27;99041.66;;;17.21;100.00
41898;BME280;27576;53.366;-1.498;2023-07-28T07:48:53;99074.88;;;17.44;100.00
41898;BME280;27576;53.366;-1.498;2023-07-28T07:51:18;99072.91;;;17.51;100.00
41898;BME280;27576;53.366;-1.498;2023-07-28T07:53:43;99036.72;;;17.37;100.00
41898;BME280;27576;53.366;-1.498;2023-07-28T07:56:09;99052.63;;;17.56;100.00
41898;BME280;27576;53.366;-1.498;2023-07-28T07:58:35;99063.97;;;17.80;100.00
41898;BME280;27576;53.366;-1.498;2023-07-28T08:01:00;99052.31;;;17.88;100.00
41898;BME280;27576;53.366;-1.498;2023-07-28T08:03:26;99042.56;;;17.92;100.00
41898;BME280;27576;53.366;-1.498;2023-07-28T08:05:52;99052.56;;;18.04;100.00
41898;BME280;27576;53.366;-1.498;2023-07-28T08:08:18;99061.75;;;18.14;100.00
41898;BME280;27576;53.366;-1.498;2023-07-28T08:10:48;99051.25;;;18.14;100.00
41898;BME280;27576;53.366;-1.498;2023-07-28T08:13:14;99064.69;;;18.29;100.00
41898;BME280;27576;53.366;-1.498;2023-07-28T08:15:40;99059.16;;;18.35;100.00
41898;BME280;27576;53.366;-1.498;2023-07-28T08:18:06;99052.88;;;18.39;100.00
41898;BME280;27576;53.366;-1.498;2023-07-28T08:20:32;99058.44;;;18.53;100.00
41898;BME280;27576;53.366;-1.498;2023-07-28T08:22:57;99044.91;;;18.42;100.00
41898;BME280;27576;53.366;-1.498;2023-07-28T08:25:22;99064.06;;;18.44;100.00
41898;BME280;27576;53.366;-1.498;2023-07-28T08:27:49;99054.34;;;18.46;100.00
41898;BME280;27576;53.366;-1.498;2023-07-28T08:30:18;99056.84;;;18.49;100.00
41898;BME280;27576;53.366;-1.498;2023-07-28T08:32:43;99070.13;;;18.67;100.00
41898;BME280;27576;53.366;-1.498;2023-07-28T08:35:09;99049.88;;;18.70;100.00
41898;BME280;27576;53.366;-1.498;2023-07-28T08:37:35;99041.03;;;18.73;100.00
41898;BME280;27576;53.366;-1.498;2023-07-28T08:40:00;99060.47;;;18.89;100.00
41898;BME280;27576;53.366;-1.498;2023-07-28T08:42:29;99071.03;;;18.87;100.00
41898;BME280;27576;53.366;-1.498;2023-07-28T08:44:54;99070.50;;;18.79;100.00
41898;BME280;27576;53.366;-1.498;2023-07-28T08:47:20;99052.78;;;18.62;100.00
41898;BME280;27576;53.366;-1.498;2023-07-28T08:49:46;99083.44;;;18.62;100.00
41898;BME280;27576;53.366;-1.498;2023-07-28T08:52:15;99084.44;;;18.59;100.00
41898;BME280;27576;53.366;-1.498;2023-07-28T08:54:41;99062.59;;;18.37;100.00
41898;BME280;27576;53.366;-1.498;2023-07-28T08:57:06;99059.31;;;18.32;100.00
41898;BME280;27576;53.366;-1.498;2023-07-28T08:59:32;99061.41;;;18.24;100.00
41898;BME280;27576;53.366;-1.498;2023-07-28T09:01:57;99082.06;;;18.31;100.00
41898;BME280;27576;53.366;-1.498;2023-07-28T09:04:24;99084.31;;;18.19;100.00
41898;BME280;27576;53.366;-1.498;2023-07-28T09:06:50;99085.53;;;18.10;100.00
41898;BME280;27576;53.366;-1.498;2023-07-28T09:09:21;99051.59;;;17.83;100.00
41898;BME280;27576;53.366;-1.498;2023-07-28T09:11:49;99062.22;;;17.80;100.00
41898;BME280;27576;53.366;-1.498;2023-07-28T09:14:17;99084.63;;;17.87;100.00
41898;BME280;27576;53.366;-1.498;2023-07-28T09:16:43;99089.28;;;17.81;100.00
41898;BME280;27576;53.366;-1.498;2023-07-28T09:19:09;99095.59;;;17.75;100.00
41898;BME280;27576;53.366;-1.498;2023-07-28T09:21:35;99091.44;;;17.68;100.00
41898;BME280;27576;53.366;-1.498;2023-07-28T09:24:11;99089.84;;;17.64;100.00
41898;BME280;27576;53.366;-1.498;2023-07-28T09:26:41;99094.25;;;17.63;100.00
41898;BME280;27576;53.366;-1.498;2023-07-28T09:29:26;99087.31;;;17.62;100.00
41898;BME280;27576;53.366;-1.498;2023-07-28T09:32:03;99088.03;;;17.66;100.00
41898;BME280;27576;53.366;-1.498;2023-07-28T09:34:29;99065.53;;;17.60;100.00
41898;BME280;27576;53.366;-1.498;2023-07-28T09:36:55;99084.25;;;17.75;100.00
41898;BME280;27576;53.366;-1.498;2023-07-28T09:39:21;99090.16;;;17.80;100.00
41898;BME280;27576;53.366;-1.498;2023-07-28T09:41:47;99072.75;;;17.79;100.00
41898;BME280;27576;53.366;-1.498;2023-07-28T09:44:13;99064.34;;;17.69;100.00
41898;BME280;27576;53.366;-1.498;2023-07-28T09:46:51;99075.47;;;17.76;100.00
41898;BME280;27576;53.366;-1.498;2023-07-28T09:49:36;99088.09;;;17.88;100.00
41898;BME280;27576;53.366;-1.498;2023-07-28T09:52:08;99095.47;;;17.78;100.00
41898;BME280;27576;53.366;-1.498;2023-07-28T09:54:39;99091.31;;;17.73;100.00
41898;BME280;27576;53.366;-1.498;2023-07-28T09:57:08;99099.31;;;17.68;100.00
41898;BME280;27576;53.366;-1.498;2023-07-28T09:59:38;99102.06;;;17.65;100.00
41898;BME280;27576;53.366;-1.498;2023-07-28T10:02:04;99099.28;;;17.70;100.00
41898;BME280;27576;53.366;-1.498;2023-07-28T10:04:31;99102.41;;;17.79;100.00
41898;BME280;27576;53.366;-1.498;2023-07-28T10:06:57;99091.81;;;17.82;100.00
41898;BME280;27576;53.366;-1.498;2023-07-28T10:09:27;99079.75;;;17.78;100.00
41898;BME280;27576;53.366;-1.498;2023-07-28T10:11:53;99079.91;;;17.74;100.00
41898;BME280;27576;53.366;-1.498;2023-07-28T10:14:29;99103.91;;;17.86;100.00
41898;BME280;27576;53.366;-1.498;2023-07-28T10:16:57;99092.69;;;17.83;100.00
41898;BME280;27576;53.366;-1.498;2023-07-28T10:19:25;99089.84;;;17.89;100.00
41898;BME280;27576;53.366;-1.498;2023-07-28T10:21:59;99089.78;;;17.90;100.00
41898;BME280;27576;53.366;-1.498;2023-07-28T10:24:51;99088.84;;;17.91;100.00
41898;BME280;27576;53.366;-1.498;2023-07-28T10:27:44;99094.91;;;17.94;100.00
41898;BME280;27576;53.366;-1.498;2023-07-28T10:30:11;99091.34;;;17.95;100.00
41898;BME280;27576;53.366;-1.498;2023-07-28T10:32:39;99093.06;;;17.96;100.00
41898;BME280;27576;53.366;-1.498;2023-07-28T10:37:37;99075.00;;;17.88;100.00
41898;BME280;27576;53.366;-1.498;2023-07-28T10:42:54;99088.06;;;17.89;100.00
41898;BME280;27576;53.366;-1.498;2023-07-28T10:45:23;99090.88;;;17.85;100.00
41898;BME280;27576;53.366;-1.498;2023-07-28T10:47:49;99076.41;;;17.75;100.00
41898;BME280;27576;53.366;-1.498;2023-07-28T10:50:14;99074.69;;;17.72;100.00
41898;BME280;27576;53.366;-1.498;2023-07-28T10:52:44;99078.91;;;17.78;100.00
41898;BME280;27576;53.366;-1.498;2023-07-28T10:55:16;99087.31;;;17.86;100.00
41898;BME280;27576;53.366;-1.498;2023-07-28T10:57:43;99077.59;;;17.89;100.00
41898;BME280;27576;53.366;-1.498;2023-07-28T11:00:10;99082.25;;;18.05;100.00
41898;BME280;27576;53.366;-1.498;2023-07-28T11:02:50;99073.09;;;18.15;100.00
41898;BME280;27576;53.366;-1.498;2023-07-28T11:07:45;99047.09;;;18.31;100.00
41898;BME280;27576;53.366;-1.498;2023-07-28T11:10:12;99079.19;;;18.59;100.00
41898;BME280;27576;53.366;-1.498;2023-07-28T11:12:46;99075.44;;;18.65;100.00
41898;BME280;27576;53.366;-1.498;2023-07-28T11:15:13;99074.38;;;18.69;100.00
41898;BME280;27576;53.366;-1.498;2023-07-28T11:17:50;99069.91;;;18.73;100.00
41898;BME280;27576;53.366;-1.498;2023-07-28T11:20:23;99051.63;;;18.71;100.00
41898;BME280;27576;53.366;-1.498;2023-07-28T11:23:00;99071.88;;;18.88;100.00
41898;BME280;27576;53.366;-1.498;2023-07-28T11:25:27;99048.38;;;18.85;100.00
41898;BME280;27576;53.366;-1.498;2023-07-28T11:27:53;99039.97;;;18.97;100.00
41898;BME280;27576;53.366;-1.498;2023-07-28T11:30:22;99073.06;;;19.22;100.00
41898;BME280;27576;53.366;-1.498;2023-07-28T11:32:50;99065.28;;;19.39;100.00
41898;BME280;27576;53.366;-1.498;2023-07-28T11:35:19;99066.16;;;19.58;100.00
41898;BME280;27576;53.366;-1.498;2023-07-28T11:37:47;99076.41;;;19.65;99.96
41898;BME280;27576;53.366;-1.498;2023-07-28T11:40:15;99076.28;;;19.68;100.00
41898;BME280;27576;53.366;-1.498;2023-07-28T11:42:44;99063.78;;;19.73;99.58
41898;BME280;27576;53.366;-1.498;2023-07-28T11:45:10;99052.06;;;19.80;100.00
41898;BME280;27576;53.366;-1.498;2023-07-28T11:47:37;99058.28;;;19.96;98.95
41898;BME280;27576;53.366;-1.498;2023-07-28T11:50:03;99056.09;;;20.06;97.48
41898;BME280;27576;53.366;-1.498;2023-07-28T11:52:31;99050.25;;;20.18;96.04
41898;BME280;27576;53.366;-1.498;2023-07-28T11:54:58;99064.03;;;20.23;94.46
41898;BME280;27576;53.366;-1.498;2023-07-28T11:57:25;99065.94;;;20.20;93.47
41898;BME280;27576;53.366;-1.498;2023-07-28T11:59:51;99068.53;;;20.21;94.76
41898;BME280;27576;53.366;-1.498;2023-07-28T12:02:25;99064.25;;;20.19;92.57
41898;BME280;27576;53.366;-1.498;2023-07-28T12:04:51;99066.03;;;20.18;93.91
41898;BME280;27576;53.366;-1.498;2023-07-28T12:07:18;99048.94;;;20.27;93.36
41898;BME280;27576;53.366;-1.498;2023-07-28T12:12:23;99036.56;;;20.65;92.60
41898;BME280;27576;53.366;-1.498;2023-07-28T12:14:49;99069.63;;;20.88;90.04
41898;BME280;27576;53.366;-1.498;2023-07-28T12:17:18;99062.88;;;20.82;89.92
41898;BME280;27576;53.366;-1.498;2023-07-28T12:20:05;99072.25;;;20.71;86.87
41898;BME280;27576;53.366;-1.498;2023-07-28T12:22:40;99074.97;;;20.52;86.41
41898;BME280;27576;53.366;-1.498;2023-07-28T12:25:06;99062.19;;;20.43;88.67
41898;BME280;27576;53.366;-1.498;2023-07-28T12:27:31;99055.63;;;20.34;89.25
41898;BME280;27576;53.366;-1.498;2023-07-28T12:29:57;99064.84;;;20.43;87.87
41898;BME280;27576;53.366;-1.498;2023-07-28T12:32:23;99060.72;;;20.56;88.51
41898;BME280;27576;53.366;-1.498;2023-07-28T12:34:49;99048.56;;;20.71;86.61
41898;BME280;27576;53.366;-1.498;2023-07-28T12:37:15;99055.69;;;20.69;86.01
41898;BME280;27576;53.366;-1.498;2023-07-28T12:39:41;99056.25;;;20.75;85.60
41898;BME280;27576;53.366;-1.498;2023-07-28T12:42:10;99062.41;;;21.09;83.88
41898;BME280;27576;53.366;-1.498;2023-07-28T12:44:37;99050.06;;;21.27;82.76
41898;BME280;27576;53.366;-1.498;2023-07-28T12:47:03;99039.53;;;21.27;80.98
41898;BME280;27576;53.366;-1.498;2023-07-28T12:49:29;99068.25;;;21.49;78.12
41898;BME280;27576;53.366;-1.498;2023-07-28T12:51:58;99055.88;;;21.67;77.18
41898;BME280;27576;53.366;-1.498;2023-07-28T12:54:24;99038.84;;;21.56;77.74
41898;BME280;27576;53.366;-1.498;2023-07-28T12:56:51;99054.06;;;21.51;77.50